Terminal Aerodrome Forecast
Issued by NWS

Home | Current Version | Previous Version | Graphics & Text | Print | Product List | Glossary On
Versions: 1 2 3 4 5 6 7 8 9 10 11 12 13 14 15 16 17 18 19
000
FTUS43 KTOP 250300 AAA
TAFFOE
TAF AMD
KFOE 250308Z 2503/2524 15011KT P6SM SCT025 BKN050
     FM250500 17014G20KT 3SM -TSRA BR SCT023CB OVC035
      TEMPO 2505/2507 VRB15G25KT 1SM TSRA OVC022CB
     FM250800 22012KT 3SM -RA OVC022
     FM251500 33015G24KT P6SM SCT020 BKN035=

USA.gov is the U.S. government's official web portal to all federal, state and local government web resources and services.